Annapolis, California
Current Conditions -  °F | °C
As of 9:56 PM on Wednesday 22 Oct 2014 (Local Time) from KUKI Reporting Station
Clear Clear  
Wind Chill: 61°   Ceiling: Unl
Heat Index: 61°   Visibility: 10mi
Dew Point: 53°   Wind: 0mph
Humidity: 75%   Direction: NA
Pressure: 30.04"   Gusts: NA
Location:  38.71°N, 123.35°W
Report Text: KUKI 230456Z AUTO 00000KT 10SM CLR 16/12 A3004 RMK AO2 SLP169 T01610117
Loading
Personal Weather Stations






























Interactive Weather Map
Tropical Storm Tracking
New forecast layout! Learn more

10-Day Weather Forecast

Advertisements
Track Severe Weather on mobile